sensor_id;sensor_type;location;lat;lon;timestamp;temperature;humidity
30999;DHT22;20549;50.042;8.968;2023-03-04T00:00:47;2.20;71.10
30999;DHT22;20549;50.042;8.968;2023-03-04T00:03:13;2.20;71.30
30999;DHT22;20549;50.042;8.968;2023-03-04T00:05:43;2.10;71.30
30999;DHT22;20549;50.042;8.968;2023-03-04T00:08:09;2.10;71.30
30999;DHT22;20549;50.042;8.968;2023-03-04T00:10:36;2.10;71.60
30999;DHT22;20549;50.042;8.968;2023-03-04T00:13:03;2.00;71.60
30999;DHT22;20549;50.042;8.968;2023-03-04T00:15:29;2.00;71.70
30999;DHT22;20549;50.042;8.968;2023-03-04T00:17:56;2.00;72.70
30999;DHT22;20549;50.042;8.968;2023-03-04T00:20:22;2.00;72.00
30999;DHT22;20549;50.042;8.968;2023-03-04T00:22:49;2.00;71.80
30999;DHT22;20549;50.042;8.968;2023-03-04T00:25:15;1.90;71.80
30999;DHT22;20549;50.042;8.968;2023-03-04T00:27:42;1.90;72.10
30999;DHT22;20549;50.042;8.968;2023-03-04T00:30:09;1.90;72.20
30999;DHT22;20549;50.042;8.968;2023-03-04T00:32:35;1.90;72.30
30999;DHT22;20549;50.042;8.968;2023-03-04T00:35:02;1.90;72.30
30999;DHT22;20549;50.042;8.968;2023-03-04T00:37:28;1.90;72.30
30999;DHT22;20549;50.042;8.968;2023-03-04T00:39:55;1.80;72.50
30999;DHT22;20549;50.042;8.968;2023-03-04T00:42:22;1.80;72.30
30999;DHT22;20549;50.042;8.968;2023-03-04T00:44:48;1.80;73.10
30999;DHT22;20549;50.042;8.968;2023-03-04T00:47:15;1.80;72.50
30999;DHT22;20549;50.042;8.968;2023-03-04T00:49:41;1.70;72.40
30999;DHT22;20549;50.042;8.968;2023-03-04T00:52:08;1.70;72.50
30999;DHT22;20549;50.042;8.968;2023-03-04T00:54:35;1.70;72.60
30999;DHT22;20549;50.042;8.968;2023-03-04T00:57:01;1.70;72.70
30999;DHT22;20549;50.042;8.968;2023-03-04T00:59:28;1.70;72.60
30999;DHT22;20549;50.042;8.968;2023-03-04T01:01:54;1.70;72.70
30999;DHT22;20549;50.042;8.968;2023-03-04T01:04:21;1.60;72.60
30999;DHT22;20549;50.042;8.968;2023-03-04T01:09:23;1.60;72.70
30999;DHT22;20549;50.042;8.968;2023-03-04T01:11:50;1.50;73.30
30999;DHT22;20549;50.042;8.968;2023-03-04T01:14:16;1.50;72.70
30999;DHT22;20549;50.042;8.968;2023-03-04T01:16:43;1.50;72.80
30999;DHT22;20549;50.042;8.968;2023-03-04T01:19:10;1.50;73.10
30999;DHT22;20549;50.042;8.968;2023-03-04T01:21:36;1.50;73.20
30999;DHT22;20549;50.042;8.968;2023-03-04T01:24:03;1.50;73.50
30999;DHT22;20549;50.042;8.968;2023-03-04T01:26:29;1.60;73.80
30999;DHT22;20549;50.042;8.968;2023-03-04T01:28:56;1.70;74.00
30999;DHT22;20549;50.042;8.968;2023-03-04T01:31:23;1.70;74.00
30999;DHT22;20549;50.042;8.968;2023-03-04T01:33:49;1.80;74.10
30999;DHT22;20549;50.042;8.968;2023-03-04T01:36:16;2.00;74.30
30999;DHT22;20549;50.042;8.968;2023-03-04T01:38:42;2.00;74.20
30999;DHT22;20549;50.042;8.968;2023-03-04T01:41:10;2.20;74.20
30999;DHT22;20549;50.042;8.968;2023-03-04T01:43:35;2.30;74.20
30999;DHT22;20549;50.042;8.968;2023-03-04T01:46:02;2.40;74.10
30999;DHT22;20549;50.042;8.968;2023-03-04T01:48:29;2.50;74.10
30999;DHT22;20549;50.042;8.968;2023-03-04T01:50:56;2.60;73.90
30999;DHT22;20549;50.042;8.968;2023-03-04T01:53:22;2.70;73.90
30999;DHT22;20549;50.042;8.968;2023-03-04T01:55:48;2.80;73.80
30999;DHT22;20549;50.042;8.968;2023-03-04T01:58:15;2.80;73.60
30999;DHT22;20549;50.042;8.968;2023-03-04T02:00:42;2.90;73.60
30999;DHT22;20549;50.042;8.968;2023-03-04T02:03:15;3.00;73.50
30999;DHT22;20549;50.042;8.968;2023-03-04T02:05:42;3.10;73.50
30999;DHT22;20549;50.042;8.968;2023-03-04T02:08:07;3.20;73.50
30999;DHT22;20549;50.042;8.968;2023-03-04T02:10:34;3.20;73.30
30999;DHT22;20549;50.042;8.968;2023-03-04T02:13:01;3.30;73.40
30999;DHT22;20549;50.042;8.968;2023-03-04T02:15:28;3.40;73.20
30999;DHT22;20549;50.042;8.968;2023-03-04T02:17:54;3.40;73.10
30999;DHT22;20549;50.042;8.968;2023-03-04T02:25:48;3.60;73.00
30999;DHT22;20549;50.042;8.968;2023-03-04T02:28:13;3.60;72.80
30999;DHT22;20549;50.042;8.968;2023-03-04T02:30:39;3.70;72.70
30999;DHT22;20549;50.042;8.968;2023-03-04T02:33:08;3.70;72.70
30999;DHT22;20549;50.042;8.968;2023-03-04T02:35:32;3.70;72.60
30999;DHT22;20549;50.042;8.968;2023-03-04T02:37:59;3.80;72.60
30999;DHT22;20549;50.042;8.968;2023-03-04T02:40:27;3.80;72.60
30999;DHT22;20549;50.042;8.968;2023-03-04T02:42:52;3.90;72.60
30999;DHT22;20549;50.042;8.968;2023-03-04T02:48:03;4.00;72.50
30999;DHT22;20549;50.042;8.968;2023-03-04T02:50:30;4.00;72.40
30999;DHT22;20549;50.042;8.968;2023-03-04T02:52:56;4.00;72.30
30999;DHT22;20549;50.042;8.968;2023-03-04T02:55:23;4.00;72.30
30999;DHT22;20549;50.042;8.968;2023-03-04T02:57:49;4.10;72.30
30999;DHT22;20549;50.042;8.968;2023-03-04T03:00:16;4.10;72.20
30999;DHT22;20549;50.042;8.968;2023-03-04T03:02:42;4.10;72.20
30999;DHT22;20549;50.042;8.968;2023-03-04T03:05:09;4.20;72.10
30999;DHT22;20549;50.042;8.968;2023-03-04T03:07:36;4.20;72.10
30999;DHT22;20549;50.042;8.968;2023-03-04T03:10:03;4.20;72.00
30999;DHT22;20549;50.042;8.968;2023-03-04T03:12:29;4.20;71.90
30999;DHT22;20549;50.042;8.968;2023-03-04T03:14:55;4.20;71.80
30999;DHT22;20549;50.042;8.968;2023-03-04T03:17:22;4.30;71.80
30999;DHT22;20549;50.042;8.968;2023-03-04T03:19:49;4.30;71.80
30999;DHT22;20549;50.042;8.968;2023-03-04T03:22:15;4.30;71.70
30999;DHT22;20549;50.042;8.968;2023-03-04T03:24:42;4.20;71.70
30999;DHT22;20549;50.042;8.968;2023-03-04T03:27:08;4.20;71.70
30999;DHT22;20549;50.042;8.968;2023-03-04T03:29:35;4.20;71.70
30999;DHT22;20549;50.042;8.968;2023-03-04T03:32:01;4.20;71.80
30999;DHT22;20549;50.042;8.968;2023-03-04T03:34:28;4.20;71.70
30999;DHT22;20549;50.042;8.968;2023-03-04T03:36:55;4.20;71.70
30999;DHT22;20549;50.042;8.968;2023-03-04T03:39:21;4.20;72.50
30999;DHT22;20549;50.042;8.968;2023-03-04T03:41:48;4.20;71.70
30999;DHT22;20549;50.042;8.968;2023-03-04T03:44:14;4.20;71.70
30999;DHT22;20549;50.042;8.968;2023-03-04T03:46:41;4.20;71.80
30999;DHT22;20549;50.042;8.968;2023-03-04T03:49:08;4.20;71.70
30999;DHT22;20549;50.042;8.968;2023-03-04T03:51:34;4.20;71.70
30999;DHT22;20549;50.042;8.968;2023-03-04T03:54:01;4.20;71.80
30999;DHT22;20549;50.042;8.968;2023-03-04T03:56:27;4.20;71.80
30999;DHT22;20549;50.042;8.968;2023-03-04T03:58:57;4.20;71.80
30999;DHT22;20549;50.042;8.968;2023-03-04T04:01:23;4.20;71.80
30999;DHT22;20549;50.042;8.968;2023-03-04T04:03:50;4.20;71.80
30999;DHT22;20549;50.042;8.968;2023-03-04T04:06:16;4.10;71.80
30999;DHT22;20549;50.042;8.968;2023-03-04T04:08:43;4.10;71.90
30999;DHT22;20549;50.042;8.968;2023-03-04T04:11:10;4.10;71.90
30999;DHT22;20549;50.042;8.968;2023-03-04T04:13:36;4.10;72.00
30999;DHT22;20549;50.042;8.968;2023-03-04T04:16:03;4.10;72.00
30999;DHT22;20549;50.042;8.968;2023-03-04T04:18:29;4.20;72.10
30999;DHT22;20549;50.042;8.968;2023-03-04T04:20:56;4.20;72.10
30999;DHT22;20549;50.042;8.968;2023-03-04T04:23:22;4.20;72.30
30999;DHT22;20549;50.042;8.968;2023-03-04T04:25:49;4.20;72.10
30999;DHT22;20549;50.042;8.968;2023-03-04T04:28:16;4.20;72.20
30999;DHT22;20549;50.042;8.968;2023-03-04T04:30:42;4.20;72.20
30999;DHT22;20549;50.042;8.968;2023-03-04T04:33:09;4.30;72.20
30999;DHT22;20549;50.042;8.968;2023-03-04T04:35:35;4.30;72.10
30999;DHT22;20549;50.042;8.968;2023-03-04T04:38:02;4.30;72.10
30999;DHT22;20549;50.042;8.968;2023-03-04T04:40:29;4.30;72.10
30999;DHT22;20549;50.042;8.968;2023-03-04T04:42:55;4.30;72.10
30999;DHT22;20549;50.042;8.968;2023-03-04T04:45:22;4.30;72.50
30999;DHT22;20549;50.042;8.968;2023-03-04T04:47:48;4.40;72.10
30999;DHT22;20549;50.042;8.968;2023-03-04T04:50:15;4.40;72.20
30999;DHT22;20549;50.042;8.968;2023-03-04T04:52:41;4.40;72.10
30999;DHT22;20549;50.042;8.968;2023-03-04T04:55:08;4.40;72.10
30999;DHT22;20549;50.042;8.968;2023-03-04T04:57:35;4.40;72.00
30999;DHT22;20549;50.042;8.968;2023-03-04T05:00:02;4.40;72.10
30999;DHT22;20549;50.042;8.968;2023-03-04T05:02:28;4.40;72.00
30999;DHT22;20549;50.042;8.968;2023-03-04T05:04:54;4.40;72.10
30999;DHT22;20549;50.042;8.968;2023-03-04T05:07:21;4.40;72.00
30999;DHT22;20549;50.042;8.968;2023-03-04T05:09:48;4.40;72.00
30999;DHT22;20549;50.042;8.968;2023-03-04T05:12:14;4.40;72.80
30999;DHT22;20549;50.042;8.968;2023-03-04T05:14:41;4.40;72.00
30999;DHT22;20549;50.042;8.968;2023-03-04T05:17:07;4.40;72.00
30999;DHT22;20549;50.042;8.968;2023-03-04T05:19:34;4.40;72.00
30999;DHT22;20549;50.042;8.968;2023-03-04T05:22:01;4.40;72.10
30999;DHT22;20549;50.042;8.968;2023-03-04T05:24:27;4.40;72.10
30999;DHT22;20549;50.042;8.968;2023-03-04T05:26:54;4.40;72.10
30999;DHT22;20549;50.042;8.968;2023-03-04T05:29:20;4.40;72.10
30999;DHT22;20549;50.042;8.968;2023-03-04T05:31:47;4.40;72.10
30999;DHT22;20549;50.042;8.968;2023-03-04T05:34:13;4.40;72.20
30999;DHT22;20549;50.042;8.968;2023-03-04T05:36:40;4.30;72.10
30999;DHT22;20549;50.042;8.968;2023-03-04T05:39:07;4.40;72.40
30999;DHT22;20549;50.042;8.968;2023-03-04T05:41:33;4.30;72.20
30999;DHT22;20549;50.042;8.968;2023-03-04T05:44:00;4.40;72.30
30999;DHT22;20549;50.042;8.968;2023-03-04T05:46:26;4.40;72.50
30999;DHT22;20549;50.042;8.968;2023-03-04T05:48:53;4.40;72.50
30999;DHT22;20549;50.042;8.968;2023-03-04T05:51:20;4.40;72.50
30999;DHT22;20549;50.042;8.968;2023-03-04T05:53:46;4.40;72.50
30999;DHT22;20549;50.042;8.968;2023-03-04T05:56:14;4.40;72.60
30999;DHT22;20549;50.042;8.968;2023-03-04T05:58:39;4.40;72.50
30999;DHT22;20549;50.042;8.968;2023-03-04T06:01:06;4.40;72.50
30999;DHT22;20549;50.042;8.968;2023-03-04T06:03:32;4.40;72.30
30999;DHT22;20549;50.042;8.968;2023-03-04T06:05:59;4.40;72.40
30999;DHT22;20549;50.042;8.968;2023-03-04T06:08:26;4.40;72.40
30999;DHT22;20549;50.042;8.968;2023-03-04T06:10:53;4.40;72.40
30999;DHT22;20549;50.042;8.968;2023-03-04T06:13:19;4.40;72.50
30999;DHT22;20549;50.042;8.968;2023-03-04T06:15:45;4.40;72.50
30999;DHT22;20549;50.042;8.968;2023-03-04T06:18:12;4.40;72.50
30999;DHT22;20549;50.042;8.968;2023-03-04T06:20:39;4.50;72.60
30999;DHT22;20549;50.042;8.968;2023-03-04T06:23:05;4.50;72.60
30999;DHT22;20549;50.042;8.968;2023-03-04T06:25:32;4.50;72.60
30999;DHT22;20549;50.042;8.968;2023-03-04T06:27:58;4.50;72.60
30999;DHT22;20549;50.042;8.968;2023-03-04T06:30:25;4.50;72.60
30999;DHT22;20549;50.042;8.968;2023-03-04T06:32:52;4.50;72.50
30999;DHT22;20549;50.042;8.968;2023-03-04T06:35:18;4.60;72.60
30999;DHT22;20549;50.042;8.968;2023-03-04T06:37:45;4.60;72.60
30999;DHT22;20549;50.042;8.968;2023-03-04T06:40:11;4.60;72.60
30999;DHT22;20549;50.042;8.968;2023-03-04T06:42:38;4.60;72.50
30999;DHT22;20549;50.042;8.968;2023-03-04T06:45:05;4.60;72.50
30999;DHT22;20549;50.042;8.968;2023-03-04T06:47:31;4.60;72.50
30999;DHT22;20549;50.042;8.968;2023-03-04T06:49:58;4.70;72.60
30999;DHT22;20549;50.042;8.968;2023-03-04T06:52:24;4.70;72.60
30999;DHT22;20549;50.042;8.968;2023-03-04T06:54:51;4.70;72.60
30999;DHT22;20549;50.042;8.968;2023-03-04T06:57:17;4.70;72.60
30999;DHT22;20549;50.042;8.968;2023-03-04T06:59:44;4.80;72.70
30999;DHT22;20549;50.042;8.968;2023-03-04T07:02:11;4.80;72.80
30999;DHT22;20549;50.042;8.968;2023-03-04T07:04:37;4.80;72.60
30999;DHT22;20549;50.042;8.968;2023-03-04T07:07:04;4.80;72.50
30999;DHT22;20549;50.042;8.968;2023-03-04T07:09:30;4.80;72.50
30999;DHT22;20549;50.042;8.968;2023-03-04T07:11:57;4.90;72.50
30999;DHT22;20549;50.042;8.968;2023-03-04T07:14:23;4.90;72.50
30999;DHT22;20549;50.042;8.968;2023-03-04T07:16:50;4.90;72.50
30999;DHT22;20549;50.042;8.968;2023-03-04T07:19:17;5.00;72.70
30999;DHT22;20549;50.042;8.968;2023-03-04T07:21:43;5.00;72.50
30999;DHT22;20549;50.042;8.968;2023-03-04T07:24:10;5.00;72.70
30999;DHT22;20549;50.042;8.968;2023-03-04T07:26:36;5.10;72.70
30999;DHT22;20549;50.042;8.968;2023-03-04T07:29:03;5.10;72.60
30999;DHT22;20549;50.042;8.968;2023-03-04T07:31:31;5.10;72.50
30999;DHT22;20549;50.042;8.968;2023-03-04T07:33:57;5.20;72.60
30999;DHT22;20549;50.042;8.968;2023-03-04T07:36:23;5.20;72.60
30999;DHT22;20549;50.042;8.968;2023-03-04T07:38:49;5.20;72.50
30999;DHT22;20549;50.042;8.968;2023-03-04T07:41:16;5.30;72.70
30999;DHT22;20549;50.042;8.968;2023-03-04T07:43:43;5.30;72.70
30999;DHT22;20549;50.042;8.968;2023-03-04T07:46:09;5.40;72.70
30999;DHT22;20549;50.042;8.968;2023-03-04T07:48:36;5.40;72.60
30999;DHT22;20549;50.042;8.968;2023-03-04T07:51:03;5.50;72.70
30999;DHT22;20549;50.042;8.968;2023-03-04T07:53:30;5.50;72.60
30999;DHT22;20549;50.042;8.968;2023-03-04T07:55:55;5.60;72.60
30999;DHT22;20549;50.042;8.968;2023-03-04T07:58:23;5.60;72.50
30999;DHT22;20549;50.042;8.968;2023-03-04T08:00:49;5.60;72.50
30999;DHT22;20549;50.042;8.968;2023-03-04T08:03:15;5.70;72.60
30999;DHT22;20549;50.042;8.968;2023-03-04T08:05:42;5.80;72.60
30999;DHT22;20549;50.042;8.968;2023-03-04T08:08:08;5.90;72.60
30999;DHT22;20549;50.042;8.968;2023-03-04T08:10:35;5.90;72.40
30999;DHT22;20549;50.042;8.968;2023-03-04T08:13:02;6.00;72.40
30999;DHT22;20549;50.042;8.968;2023-03-04T08:15:28;6.10;72.40
30999;DHT22;20549;50.042;8.968;2023-03-04T08:17:55;6.10;72.30
30999;DHT22;20549;50.042;8.968;2023-03-04T08:20:21;6.20;72.40
30999;DHT22;20549;50.042;8.968;2023-03-04T08:22:48;6.30;72.30
30999;DHT22;20549;50.042;8.968;2023-03-04T08:25:15;6.30;72.30
30999;DHT22;20549;50.042;8.968;2023-03-04T08:27:41;6.40;72.20
30999;DHT22;20549;50.042;8.968;2023-03-04T08:30:08;6.40;72.10
30999;DHT22;20549;50.042;8.968;2023-03-04T08:32:34;6.50;72.00
30999;DHT22;20549;50.042;8.968;2023-03-04T08:35:01;6.50;71.90
30999;DHT22;20549;50.042;8.968;2023-03-04T08:37:30;6.60;71.70
30999;DHT22;20549;50.042;8.968;2023-03-04T08:39:57;6.60;71.70
30999;DHT22;20549;50.042;8.968;2023-03-04T08:42:24;6.60;71.70
30999;DHT22;20549;50.042;8.968;2023-03-04T08:44:50;6.70;71.70
30999;DHT22;20549;50.042;8.968;2023-03-04T08:47:17;6.80;71.70
30999;DHT22;20549;50.042;8.968;2023-03-04T08:49:43;6.80;71.70
30999;DHT22;20549;50.042;8.968;2023-03-04T08:52:10;6.90;71.60
30999;DHT22;20549;50.042;8.968;2023-03-04T08:54:36;7.00;71.50
30999;DHT22;20549;50.042;8.968;2023-03-04T08:57:03;7.00;71.40
30999;DHT22;20549;50.042;8.968;2023-03-04T08:59:30;7.00;71.40
30999;DHT22;20549;50.042;8.968;2023-03-04T09:01:56;7.10;71.40
30999;DHT22;20549;50.042;8.968;2023-03-04T09:04:23;7.10;71.40
30999;DHT22;20549;50.042;8.968;2023-03-04T09:06:49;7.30;71.40
30999;DHT22;20549;50.042;8.968;2023-03-04T09:09:16;7.30;71.40
30999;DHT22;20549;50.042;8.968;2023-03-04T09:11:43;7.40;71.30
30999;DHT22;20549;50.042;8.968;2023-03-04T09:14:09;7.40;71.20
30999;DHT22;20549;50.042;8.968;2023-03-04T09:16:36;7.50;71.40
30999;DHT22;20549;50.042;8.968;2023-03-04T09:19:02;7.60;71.30
30999;DHT22;20549;50.042;8.968;2023-03-04T09:21:29;7.60;71.40
30999;DHT22;20549;50.042;8.968;2023-03-04T09:23:56;7.70;71.20
30999;DHT22;20549;50.042;8.968;2023-03-04T09:26:24;7.80;71.60
30999;DHT22;20549;50.042;8.968;2023-03-04T09:28:52;7.90;71.10
30999;DHT22;20549;50.042;8.968;2023-03-04T09:31:18;7.90;70.90
30999;DHT22;20549;50.042;8.968;2023-03-04T09:33:45;8.00;70.80
30999;DHT22;20549;50.042;8.968;2023-03-04T09:36:12;8.10;70.80
30999;DHT22;20549;50.042;8.968;2023-03-04T09:38:38;8.10;70.70
30999;DHT22;20549;50.042;8.968;2023-03-04T09:41:06;8.20;70.60
30999;DHT22;20549;50.042;8.968;2023-03-04T09:43:31;8.20;70.60
30999;DHT22;20549;50.042;8.968;2023-03-04T09:45:59;8.30;70.60
30999;DHT22;20549;50.042;8.968;2023-03-04T09:48:27;8.30;70.50
30999;DHT22;20549;50.042;8.968;2023-03-04T09:51:00;8.40;70.70
30999;DHT22;20549;50.042;8.968;2023-03-04T09:54:10;8.50;70.70
30999;DHT22;20549;50.042;8.968;2023-03-04T09:55:50;8.60;70.70
30999;DHT22;20549;50.042;8.968;2023-03-04T09:58:27;8.70;70.70
30999;DHT22;20549;50.042;8.968;2023-03-04T10:00:57;8.80;70.70
30999;DHT22;20549;50.042;8.968;2023-03-04T10:03:26;8.90;70.60
30999;DHT22;20549;50.042;8.968;2023-03-04T10:08:44;9.10;70.60
30999;DHT22;20549;50.042;8.968;2023-03-04T10:11:29;9.10;70.40
30999;DHT22;20549;50.042;8.968;2023-03-04T10:16:29;9.40;70.00
30999;DHT22;20549;50.042;8.968;2023-03-04T10:18:57;9.40;69.70
30999;DHT22;20549;50.042;8.968;2023-03-04T10:21:32;9.50;69.30
30999;DHT22;20549;50.042;8.968;2023-03-04T10:23:59;9.60;69.00
30999;DHT22;20549;50.042;8.968;2023-03-04T10:26:24;9.70;68.90
30999;DHT22;20549;50.042;8.968;2023-03-04T10:28:51;9.80;68.50
30999;DHT22;20549;50.042;8.968;2023-03-04T10:31:21;9.90;68.40
30999;DHT22;20549;50.042;8.968;2023-03-04T10:33:46;9.90;68.10
30999;DHT22;20549;50.042;8.968;2023-03-04T10:39:11;10.10;67.60
30999;DHT22;20549;50.042;8.968;2023-03-04T10:41:34;10.20;67.60
30999;DHT22;20549;50.042;8.968;2023-03-04T10:46:30;10.40;67.10
30999;DHT22;20549;50.042;8.968;2023-03-04T10:48:56;10.40;66.80
30999;DHT22;20549;50.042;8.968;2023-03-04T10:51:26;10.50;65.80
30999;DHT22;20549;50.042;8.968;2023-03-04T10:53:50;10.50;66.20
30999;DHT22;20549;50.042;8.968;2023-03-04T10:56:33;10.60;66.10
30999;DHT22;20549;50.042;8.968;2023-03-04T11:01:59;10.60;65.80
30999;DHT22;20549;50.042;8.968;2023-03-04T11:04:26;10.60;65.70
30999;DHT22;20549;50.042;8.968;2023-03-04T11:06:51;10.60;65.70
30999;DHT22;20549;50.042;8.968;2023-03-04T11:09:22;10.70;65.70
30999;DHT22;20549;50.042;8.968;2023-03-04T11:11:48;10.70;65.70
30999;DHT22;20549;50.042;8.968;2023-03-04T11:14:30;10.70;65.40
30999;DHT22;20549;50.042;8.968;2023-03-04T11:16:57;10.80;65.30
30999;DHT22;20549;50.042;8.968;2023-03-04T11:19:23;10.80;65.30
30999;DHT22;20549;50.042;8.968;2023-03-04T11:21:49;10.80;65.10
30999;DHT22;20549;50.042;8.968;2023-03-04T11:24:18;10.90;65.10
30999;DHT22;20549;50.042;8.968;2023-03-04T11:26:44;10.90;65.00
30999;DHT22;20549;50.042;8.968;2023-03-04T11:29:19;10.90;64.80
30999;DHT22;20549;50.042;8.968;2023-03-04T11:31:54;11.00;64.70
30999;DHT22;20549;50.042;8.968;2023-03-04T11:39:34;11.10;64.60
30999;DHT22;20549;50.042;8.968;2023-03-04T11:42:50;11.10;64.40
30999;DHT22;20549;50.042;8.968;2023-03-04T11:44:29;11.10;64.20
30999;DHT22;20549;50.042;8.968;2023-03-04T11:47:04;11.10;64.10
30999;DHT22;20549;50.042;8.968;2023-03-04T12:03:00;11.30;63.80
30999;DHT22;20549;50.042;8.968;2023-03-04T12:05:26;11.30;63.60
30999;DHT22;20549;50.042;8.968;2023-03-04T12:11:27;11.20;63.40
30999;DHT22;20549;50.042;8.968;2023-03-04T12:16:50;11.20;63.40
30999;DHT22;20549;50.042;8.968;2023-03-04T12:21:43;11.30;63.50
30999;DHT22;20549;50.042;8.968;2023-03-04T12:27:09;11.30;63.50
30999;DHT22;20549;50.042;8.968;2023-03-04T12:29:40;11.30;63.40
30999;DHT22;20549;50.042;8.968;2023-03-04T12:32:16;11.30;63.50
30999;DHT22;20549;50.042;8.968;2023-03-04T12:47:24;11.70;63.40
30999;DHT22;20549;50.042;8.968;2023-03-04T12:49:58;11.80;63.50
30999;DHT22;20549;50.042;8.968;2023-03-04T12:52:36;12.00;63.60
30999;DHT22;20549;50.042;8.968;2023-03-04T12:55:03;12.10;63.30
30999;DHT22;20549;50.042;8.968;2023-03-04T12:57:29;12.20;63.00
30999;DHT22;20549;50.042;8.968;2023-03-04T13:02:54;12.50;62.80
30999;DHT22;20549;50.042;8.968;2023-03-04T13:05:23;12.60;62.50
30999;DHT22;20549;50.042;8.968;2023-03-04T13:08:10;12.70;62.30
30999;DHT22;20549;50.042;8.968;2023-03-04T13:10:34;12.70;61.80
30999;DHT22;20549;50.042;8.968;2023-03-04T13:13:00;12.80;61.60
30999;DHT22;20549;50.042;8.968;2023-03-04T13:15:28;12.80;61.40
30999;DHT22;20549;50.042;8.968;2023-03-04T13:17:56;12.90;61.40
30999;DHT22;20549;50.042;8.968;2023-03-04T13:20:32;12.90;61.20
30999;DHT22;20549;50.042;8.968;2023-03-04T13:25:33;13.10;60.70
30999;DHT22;20549;50.042;8.968;2023-03-04T13:38:22;13.10;60.00
30999;DHT22;20549;50.042;8.968;2023-03-04T13:43:51;13.10;59.80
30999;DHT22;20549;50.042;8.968;2023-03-04T13:56:36;12.90;59.20
30999;DHT22;20549;50.042;8.968;2023-03-04T14:01:35;12.80;59.40
30999;DHT22;20549;50.042;8.968;2023-03-04T14:04:09;12.70;59.50
30999;DHT22;20549;50.042;8.968;2023-03-04T14:06:29;12.70;59.50
30999;DHT22;20549;50.042;8.968;2023-03-04T14:08:55;12.60;59.50
30999;DHT22;20549;50.042;8.968;2023-03-04T14:11:28;12.60;59.40
30999;DHT22;20549;50.042;8.968;2023-03-04T14:13:50;12.50;59.60
30999;DHT22;20549;50.042;8.968;2023-03-04T14:16:20;12.50;59.40
30999;DHT22;20549;50.042;8.968;2023-03-04T14:18:55;12.50;59.40
30999;DHT22;20549;50.042;8.968;2023-03-04T14:21:13;12.40;59.50
30999;DHT22;20549;50.042;8.968;2023-03-04T14:23:39;12.40;59.50
30999;DHT22;20549;50.042;8.968;2023-03-04T14:26:13;12.40;59.50
30999;DHT22;20549;50.042;8.968;2023-03-04T14:28:41;12.30;59.30
30999;DHT22;20549;50.042;8.968;2023-03-04T14:31:10;12.30;59.20
30999;DHT22;20549;50.042;8.968;2023-03-04T14:33:34;12.20;59.30
30999;DHT22;20549;50.042;8.968;2023-03-04T14:36:00;12.20;59.30
30999;DHT22;20549;50.042;8.968;2023-03-04T14:38:27;12.10;59.30
30999;DHT22;20549;50.042;8.968;2023-03-04T14:41:01;12.00;59.30
30999;DHT22;20549;50.042;8.968;2023-03-04T14:43:22;12.00;59.40
30999;DHT22;20549;50.042;8.968;2023-03-04T14:45:50;11.90;59.40
30999;DHT22;20549;50.042;8.968;2023-03-04T14:48:19;11.80;59.50
30999;DHT22;20549;50.042;8.968;2023-03-04T14:50:48;11.80;59.60
30999;DHT22;20549;50.042;8.968;2023-03-04T14:53:16;11.70;59.60
30999;DHT22;20549;50.042;8.968;2023-03-04T14:55:53;11.60;59.60
30999;DHT22;20549;50.042;8.968;2023-03-04T14:58:20;11.50;59.60
30999;DHT22;20549;50.042;8.968;2023-03-04T15:00:46;11.50;59.70
30999;DHT22;20549;50.042;8.968;2023-03-04T15:03:19;11.40;59.70
30999;DHT22;20549;50.042;8.968;2023-03-04T15:05:44;11.30;59.80
30999;DHT22;20549;50.042;8.968;2023-03-04T15:08:32;11.30;59.90
30999;DHT22;20549;50.042;8.968;2023-03-04T15:10:57;11.20;60.00
30999;DHT22;20549;50.042;8.968;2023-03-04T15:16:08;11.10;60.10
30999;DHT22;20549;50.042;8.968;2023-03-04T15:18:34;11.00;60.10
30999;DHT22;20549;50.042;8.968;2023-03-04T15:23:45;10.90;60.20
30999;DHT22;20549;50.042;8.968;2023-03-04T15:26:12;10.90;60.30
30999;DHT22;20549;50.042;8.968;2023-03-04T15:28:38;10.80;60.40
30999;DHT22;20549;50.042;8.968;2023-03-04T15:31:05;10.80;60.60
30999;DHT22;20549;50.042;8.968;2023-03-04T15:33:31;10.70;60.70
30999;DHT22;20549;50.042;8.968;2023-03-04T15:35:58;10.70;60.80
30999;DHT22;20549;50.042;8.968;2023-03-04T15:38:24;10.70;60.90
30999;DHT22;20549;50.042;8.968;2023-03-04T15:40:51;10.60;60.80
30999;DHT22;20549;50.042;8.968;2023-03-04T15:43:18;10.60;60.80
30999;DHT22;20549;50.042;8.968;2023-03-04T15:45:44;10.60;60.90
30999;DHT22;20549;50.042;8.968;2023-03-04T15:48:11;10.50;60.90
30999;DHT22;20549;50.042;8.968;2023-03-04T15:50:39;10.50;61.00
30999;DHT22;20549;50.042;8.968;2023-03-04T15:53:06;10.50;61.00
30999;DHT22;20549;50.042;8.968;2023-03-04T15:55:30;10.50;61.20
30999;DHT22;20549;50.042;8.968;2023-03-04T15:57:57;10.40;61.20
30999;DHT22;20549;50.042;8.968;2023-03-04T16:00:24;10.40;61.30
30999;DHT22;20549;50.042;8.968;2023-03-04T16:02:50;10.40;62.10
30999;DHT22;20549;50.042;8.968;2023-03-04T16:05:17;10.30;61.40
30999;DHT22;20549;50.042;8.968;2023-03-04T16:07:47;10.30;61.40
30999;DHT22;20549;50.042;8.968;2023-03-04T16:12:42;10.20;61.50
30999;DHT22;20549;50.042;8.968;2023-03-04T16:15:18;10.20;61.50
30999;DHT22;20549;50.042;8.968;2023-03-04T16:17:41;10.20;61.70
30999;DHT22;20549;50.042;8.968;2023-03-04T16:20:08;10.20;61.70
30999;DHT22;20549;50.042;8.968;2023-03-04T16:22:34;10.20;61.80
30999;DHT22;20549;50.042;8.968;2023-03-04T16:25:01;10.10;61.80
30999;DHT22;20549;50.042;8.968;2023-03-04T16:27:27;10.10;61.80
30999;DHT22;20549;50.042;8.968;2023-03-04T16:29:54;10.10;61.90
30999;DHT22;20549;50.042;8.968;2023-03-04T16:32:21;10.10;62.00
30999;DHT22;20549;50.042;8.968;2023-03-04T16:34:47;10.10;62.00
30999;DHT22;20549;50.042;8.968;2023-03-04T16:37:14;10.10;62.00
30999;DHT22;20549;50.042;8.968;2023-03-04T16:39:40;10.00;62.00
30999;DHT22;20549;50.042;8.968;2023-03-04T16:42:16;10.00;62.00
30999;DHT22;20549;50.042;8.968;2023-03-04T16:44:39;10.00;62.00
30999;DHT22;20549;50.042;8.968;2023-03-04T16:47:06;10.00;62.00
30999;DHT22;20549;50.042;8.968;2023-03-04T16:49:32;10.00;62.00
30999;DHT22;20549;50.042;8.968;2023-03-04T16:51:59;9.90;62.00
30999;DHT22;20549;50.042;8.968;2023-03-04T16:54:26;9.90;62.00
30999;DHT22;20549;50.042;8.968;2023-03-04T16:56:52;9.90;62.90
30999;DHT22;20549;50.042;8.968;2023-03-04T16:59:19;9.80;62.10
30999;DHT22;20549;50.042;8.968;2023-03-04T17:01:45;9.80;62.20
30999;DHT22;20549;50.042;8.968;2023-03-04T17:04:12;9.80;62.30
30999;DHT22;20549;50.042;8.968;2023-03-04T17:06:38;9.70;62.40
30999;DHT22;20549;50.042;8.968;2023-03-04T17:09:06;9.70;62.50
30999;DHT22;20549;50.042;8.968;2023-03-04T17:11:32;9.70;62.50
30999;DHT22;20549;50.042;8.968;2023-03-04T17:13:58;9.70;62.60
30999;DHT22;20549;50.042;8.968;2023-03-04T17:16:25;9.60;62.60
30999;DHT22;20549;50.042;8.968;2023-03-04T17:18:51;9.60;62.70
30999;DHT22;20549;50.042;8.968;2023-03-04T17:21:19;9.60;62.90
30999;DHT22;20549;50.042;8.968;2023-03-04T17:23:44;9.60;62.90
30999;DHT22;20549;50.042;8.968;2023-03-04T17:26:11;9.60;62.90
30999;DHT22;20549;50.042;8.968;2023-03-04T17:28:38;9.60;63.00